createdAt,value
2022-12-22T00:01:59.399Z,98121.06
2022-12-22T00:04:45.090Z,98102.19
2022-12-22T00:07:30.669Z,98093.03
2022-12-22T00:10:16.337Z,98095.16
2022-12-22T00:13:01.953Z,98101.25
2022-12-22T00:15:50.572Z,98099.31
2022-12-22T00:18:35.922Z,98098.47
2022-12-22T00:21:21.445Z,98096.88
2022-12-22T00:24:06.976Z,98101.78
2022-12-22T00:26:53.629Z,98104.81
2022-12-22T00:29:39.501Z,98101.56
2022-12-22T00:32:25.311Z,98100.00
2022-12-22T00:35:10.839Z,98091.94
2022-12-22T00:37:56.860Z,98108.69
2022-12-22T00:40:46.668Z,98088.81
2022-12-22T00:43:32.674Z,98094.06
2022-12-22T00:46:20.292Z,98089.56
2022-12-22T00:49:05.703Z,98090.91
2022-12-22T00:51:51.435Z,98096.88
2022-12-22T00:54:37.788Z,98087.25
2022-12-22T00:57:24.431Z,98093.25
2022-12-22T01:00:09.951Z,98091.09
2022-12-22T01:02:55.703Z,98090.88
2022-12-22T01:05:41.107Z,98098.19
2022-12-22T01:08:28.220Z,98099.06
2022-12-22T01:11:13.842Z,98104.28
2022-12-22T01:13:59.409Z,98104.50
2022-12-22T01:16:44.933Z,98095.87
2022-12-22T01:19:30.709Z,98092.12
2022-12-22T01:22:16.194Z,98082.88
2022-12-22T01:25:02.793Z,98086.63
2022-12-22T01:27:48.345Z,98076.50
2022-12-22T01:30:34.016Z,98078.53
2022-12-22T01:33:19.653Z,98066.78
2022-12-22T01:36:05.323Z,98073.03
2022-12-22T01:38:51.032Z,98069.62
2022-12-22T01:41:39.137Z,98071.69
2022-12-22T01:44:35.260Z,98082.28
2022-12-22T01:47:48.731Z,98083.50
2022-12-22T01:50:35.220Z,98084.22
2022-12-22T01:53:21.808Z,98080.47
2022-12-22T01:56:07.357Z,98077.47
2022-12-22T01:58:56.119Z,98080.28
2022-12-22T02:01:41.557Z,98071.72
2022-12-22T02:04:27.118Z,98076.28
2022-12-22T02:07:15.872Z,98066.88
2022-12-22T02:10:17.186Z,98062.72
2022-12-22T02:13:19.544Z,98070.91
2022-12-22T02:16:12.300Z,98062.63
2022-12-22T02:19:08.698Z,98070.06
2022-12-22T02:22:06.595Z,98066.69
2022-12-22T02:24:54.492Z,98059.31
2022-12-22T02:27:39.518Z,98061.81
2022-12-22T02:30:28.330Z,98060.41
2022-12-22T02:33:13.755Z,98072.06
2022-12-22T02:36:01.800Z,98060.34
2022-12-22T02:39:06.157Z,98057.50
2022-12-22T02:42:29.989Z,98054.22
2022-12-22T02:45:54.256Z,98067.53
2022-12-22T02:48:48.950Z,98070.34
2022-12-22T02:51:40.875Z,98070.25
2022-12-22T02:54:26.447Z,98068.31
2022-12-22T02:57:11.856Z,98063.44
2022-12-22T02:59:57.472Z,98054.12
2022-12-22T03:02:43.204Z,98049.50
2022-12-22T03:05:28.808Z,98032.56
2022-12-22T03:08:14.391Z,98041.75
2022-12-22T03:10:59.993Z,98036.91
2022-12-22T03:13:45.559Z,98041.56
2022-12-22T03:16:31.239Z,98038.34
2022-12-22T03:19:17.013Z,98038.41
2022-12-22T03:22:02.569Z,98033.91
2022-12-22T03:24:48.258Z,98033.87
2022-12-22T03:27:15.163Z,98023.56
2022-12-22T03:29:42.043Z,98029.91
2022-12-22T03:32:08.898Z,98011.03
2022-12-22T03:34:35.769Z,98008.03
2022-12-22T03:37:02.398Z,98001.81
2022-12-22T03:39:29.240Z,98008.91
2022-12-22T03:42:14.655Z,98012.56
2022-12-22T03:45:00.196Z,98039.53
2022-12-22T03:47:27.054Z,98017.97
2022-12-22T03:49:55.740Z,98034.94
2022-12-22T03:52:22.681Z,98034.37
2022-12-22T03:54:49.607Z,98041.91
2022-12-22T03:57:16.434Z,98033.78
2022-12-22T03:59:52.886Z,98033.19
2022-12-22T04:02:19.798Z,98020.66
2022-12-22T04:04:46.768Z,98024.72
2022-12-22T04:07:13.480Z,98019.25
2022-12-22T04:10:00.263Z,98027.03
2022-12-22T04:12:45.837Z,98023.09
2022-12-22T04:15:12.678Z,98003.16
2022-12-22T04:17:39.338Z,97992.56
2022-12-22T04:20:07.213Z,97989.47
2022-12-22T04:22:34.029Z,98004.63
2022-12-22T04:25:00.687Z,98013.00
2022-12-22T04:27:27.532Z,98019.97
2022-12-22T04:29:54.195Z,98010.47
2022-12-22T04:32:21.061Z,98010.69
2022-12-22T04:34:47.908Z,98011.72
2022-12-22T04:37:17.500Z,98004.69
2022-12-22T04:39:51.675Z,98009.28
2022-12-22T04:42:18.523Z,98007.97
2022-12-22T04:44:45.226Z,97998.16
2022-12-22T04:47:12.094Z,97995.66
2022-12-22T04:49:39.999Z,97994.38
2022-12-22T04:52:06.883Z,98000.00
2022-12-22T04:54:34.051Z,97995.56
2022-12-22T04:57:01.216Z,97995.69
2022-12-22T04:59:28.065Z,97997.91
2022-12-22T05:01:54.959Z,98003.44
2022-12-22T05:04:23.869Z,97996.97
2022-12-22T05:06:50.962Z,98003.50
2022-12-22T05:09:17.660Z,97997.97
2022-12-22T05:11:44.511Z,97991.84
2022-12-22T05:14:11.370Z,98005.06
2022-12-22T05:16:38.303Z,98007.38
2022-12-22T05:19:05.234Z,98000.66
2022-12-22T05:21:32.114Z,97990.91
2022-12-22T05:23:58.959Z,97990.06
2022-12-22T05:26:25.620Z,97997.66
2022-12-22T05:28:52.762Z,98006.53
2022-12-22T05:31:25.598Z,98009.81
2022-12-22T05:33:52.651Z,97999.41
2022-12-22T05:36:19.915Z,98001.84
2022-12-22T05:38:46.887Z,97991.03
2022-12-22T05:41:14.294Z,97996.00
2022-12-22T05:43:41.416Z,97996.94
2022-12-22T05:46:11.342Z,97980.56
2022-12-22T05:48:39.861Z,97982.28
2022-12-22T05:51:08.513Z,97995.87
2022-12-22T05:53:35.547Z,97994.34
2022-12-22T05:56:02.596Z,97995.91
2022-12-22T05:58:29.450Z,97990.97
2022-12-22T06:00:57.256Z,97992.81
2022-12-22T06:03:25.220Z,97991.81
2022-12-22T06:05:52.179Z,97989.75
2022-12-22T06:08:19.378Z,97997.94
2022-12-22T06:10:46.469Z,97997.72
2022-12-22T06:13:13.322Z,98003.09
2022-12-22T06:15:40.224Z,97991.56
2022-12-22T06:18:07.089Z,97984.47
2022-12-22T06:20:33.750Z,97992.62
2022-12-22T06:23:00.675Z,97986.31
2022-12-22T06:25:27.505Z,97996.87
2022-12-22T06:27:54.501Z,98010.13
2022-12-22T06:30:24.456Z,98004.75
2022-12-22T06:32:54.305Z,98006.41
2022-12-22T06:35:21.003Z,98001.44
2022-12-22T06:37:47.849Z,98004.72
2022-12-22T06:40:15.507Z,98002.78
2022-12-22T06:43:08.109Z,98010.25
2022-12-22T06:45:41.204Z,98018.09
2022-12-22T06:48:09.431Z,98005.94
2022-12-22T06:50:36.356Z,98013.09
2022-12-22T06:53:03.899Z,98011.63
2022-12-22T06:55:30.824Z,98016.56
2022-12-22T06:57:58.632Z,98016.69
2022-12-22T07:00:25.606Z,98018.94
2022-12-22T07:02:52.820Z,98012.56
2022-12-22T07:05:20.200Z,98016.06
2022-12-22T07:07:47.276Z,98014.16
2022-12-22T07:10:14.175Z,98015.84
2022-12-22T07:12:41.470Z,98016.47
2022-12-22T07:15:08.976Z,98009.84
2022-12-22T07:17:35.889Z,98002.06
2022-12-22T07:20:02.984Z,97998.16
2022-12-22T07:22:30.981Z,97988.56
2022-12-22T07:24:58.983Z,97991.94
2022-12-22T07:27:26.039Z,97987.41
2022-12-22T07:29:52.893Z,97994.50
2022-12-22T07:32:19.533Z,98001.94
2022-12-22T07:34:46.598Z,98009.16
2022-12-22T07:37:13.997Z,98008.56
2022-12-22T07:39:41.059Z,98004.50
2022-12-22T07:42:26.387Z,98008.09
2022-12-22T07:44:53.215Z,98012.97
2022-12-22T07:47:19.876Z,98015.06
2022-12-22T07:50:05.431Z,98025.75
2022-12-22T07:52:32.305Z,98025.09
2022-12-22T07:54:59.317Z,98035.69
2022-12-22T07:57:26.455Z,98026.47
2022-12-22T07:59:54.163Z,98023.50
2022-12-22T08:02:21.171Z,98014.03
2022-12-22T08:04:48.273Z,98006.50
2022-12-22T08:07:15.229Z,98015.84
2022-12-22T08:09:42.104Z,98023.88
2022-12-22T08:12:09.161Z,98027.97
2022-12-22T08:14:35.995Z,98026.84
2022-12-22T08:17:02.634Z,98031.41
2022-12-22T08:19:29.640Z,98033.13
2022-12-22T08:21:56.515Z,98027.13
2022-12-22T08:24:23.391Z,98009.13
2022-12-22T08:26:53.997Z,98010.75
2022-12-22T08:29:33.838Z,98008.09
2022-12-22T08:32:00.994Z,97997.22
2022-12-22T08:34:28.129Z,97999.72
2022-12-22T08:36:57.982Z,98002.56
2022-12-22T08:39:26.195Z,98004.22
2022-12-22T08:41:53.658Z,97995.34
2022-12-22T08:44:30.764Z,97994.63
2022-12-22T08:46:59.267Z,97993.53
2022-12-22T08:49:26.815Z,97988.53
2022-12-22T08:51:54.549Z,97990.75
2022-12-22T08:54:21.617Z,97997.69
2022-12-22T08:56:49.666Z,98006.13
2022-12-22T08:59:16.764Z,98004.81
2022-12-22T09:01:47.385Z,97994.63
2022-12-22T09:04:15.492Z,98004.13
2022-12-22T09:06:42.459Z,97996.63
2022-12-22T09:09:10.837Z,97995.41
2022-12-22T09:11:38.332Z,97988.34
2022-12-22T09:14:05.744Z,97977.56
2022-12-22T09:16:34.068Z,97979.28
2022-12-22T09:19:01.455Z,97989.09
2022-12-22T09:21:29.051Z,97996.34
2022-12-22T09:23:56.929Z,97995.06
2022-12-22T09:26:25.956Z,98000.50
2022-12-22T09:28:52.887Z,98001.06
2022-12-22T09:31:21.494Z,97996.41
2022-12-22T09:33:48.712Z,97989.75
2022-12-22T09:36:18.415Z,97992.31
2022-12-22T09:38:45.532Z,97983.19
2022-12-22T09:41:23.676Z,97985.19
2022-12-22T09:43:50.618Z,97976.03
2022-12-22T09:46:28.828Z,97982.28
2022-12-22T09:48:56.139Z,97968.22
2022-12-22T09:51:27.174Z,97963.81
2022-12-22T09:53:59.619Z,97961.91
2022-12-22T09:56:28.822Z,97942.78
2022-12-22T09:58:56.115Z,97946.03
2022-12-22T10:01:35.716Z,97941.50
2022-12-22T10:04:29.976Z,97936.16
2022-12-22T10:07:02.811Z,97931.78
2022-12-22T10:09:50.654Z,97927.19
2022-12-22T10:12:24.357Z,97926.59
2022-12-22T10:14:52.923Z,97916.12
2022-12-22T10:17:24.117Z,97914.91
2022-12-22T10:19:53.678Z,97910.88
2022-12-22T10:22:46.077Z,97914.38
2022-12-22T10:25:27.233Z,97915.56
2022-12-22T10:28:01.772Z,97914.34
2022-12-22T10:30:37.928Z,97916.25
2022-12-22T10:33:11.773Z,97909.09
2022-12-22T10:35:47.780Z,97903.97
2022-12-22T10:38:27.889Z,97910.41
2022-12-22T10:41:02.075Z,97914.97
2022-12-22T10:43:40.323Z,97908.12
2022-12-22T10:46:07.325Z,97896.25
2022-12-22T10:48:36.910Z,97897.28
2022-12-22T10:51:06.879Z,97896.38
2022-12-22T10:53:52.772Z,97892.38
2022-12-22T10:56:32.363Z,97884.19
2022-12-22T10:59:02.198Z,97883.50
2022-12-22T11:01:36.904Z,97883.22
2022-12-22T11:04:26.239Z,97876.31
2022-12-22T11:06:54.782Z,97873.41
2022-12-22T11:09:33.891Z,97881.91
2022-12-22T11:12:32.499Z,97885.13
2022-12-22T11:15:24.588Z,97891.78
2022-12-22T11:17:58.440Z,97882.31
2022-12-22T11:20:47.886Z,97879.66
2022-12-22T11:23:38.473Z,97869.56
2022-12-22T11:26:31.685Z,97870.28
2022-12-22T11:29:17.104Z,97873.03
2022-12-22T11:31:56.120Z,97866.66
2022-12-22T11:34:58.778Z,97874.06
2022-12-22T11:37:47.719Z,97869.25
2022-12-22T11:40:33.688Z,97867.97
2022-12-22T11:43:34.706Z,97861.66
2022-12-22T11:46:27.331Z,97868.56
2022-12-22T11:49:19.297Z,97866.25
2022-12-22T11:52:10.339Z,97876.59
2022-12-22T11:55:25.796Z,97873.75
2022-12-22T11:58:08.356Z,97857.69
2022-12-22T12:01:13.715Z,97854.34
2022-12-22T12:03:30.018Z,97847.31
2022-12-22T12:06:15.441Z,97827.94
2022-12-22T12:09:04.927Z,97825.06
2022-12-22T12:11:56.202Z,97827.56
2022-12-22T12:14:34.276Z,97831.19
2022-12-22T12:17:13.414Z,97825.88
2022-12-22T12:19:58.757Z,97830.03
2022-12-22T12:22:36.852Z,97832.72
2022-12-22T12:25:26.237Z,97833.59
2022-12-22T12:28:08.069Z,97825.28
2022-12-22T12:30:52.543Z,97837.19
2022-12-22T12:33:36.607Z,97838.47
2022-12-22T12:36:38.598Z,97839.00
2022-12-22T12:39:24.488Z,97848.22
2022-12-22T12:42:09.805Z,97840.44
2022-12-22T12:44:37.294Z,97841.06
2022-12-22T12:47:22.257Z,97839.16
2022-12-22T12:49:53.217Z,97831.94
2022-12-22T12:52:40.104Z,97839.78
2022-12-22T12:55:34.635Z,97836.59
2022-12-22T12:58:04.107Z,97846.38
2022-12-22T13:00:34.105Z,97847.75
2022-12-22T13:03:02.631Z,97853.47
2022-12-22T13:05:33.502Z,97860.56
2022-12-22T13:08:25.617Z,97851.66
2022-12-22T13:10:55.620Z,97844.94
2022-12-22T13:13:22.431Z,97848.38
2022-12-22T13:16:07.856Z,97847.72
2022-12-22T13:18:34.764Z,97850.63
2022-12-22T13:24:25.152Z,97860.22
2022-12-22T13:26:55.388Z,97860.56
2022-12-22T13:29:22.216Z,97864.03
2022-12-22T13:32:01.315Z,97861.38
2022-12-22T13:35:20.233Z,97859.72
2022-12-22T13:37:43.563Z,97864.94
2022-12-22T13:40:25.827Z,97852.84
2022-12-22T13:42:55.547Z,97857.94
2022-12-22T13:45:43.949Z,97845.31
2022-12-22T13:48:35.926Z,97845.69
2022-12-22T13:51:34.496Z,97854.63
2022-12-22T13:54:09.907Z,97864.75
2022-12-22T13:56:42.105Z,97850.16
2022-12-22T13:59:21.895Z,97862.25
2022-12-22T14:01:56.767Z,97864.53
2022-12-22T14:04:23.886Z,97864.19
2022-12-22T14:06:50.765Z,97862.59
2022-12-22T14:09:18.695Z,97861.97
2022-12-22T14:12:12.001Z,97871.12
2022-12-22T14:14:41.365Z,97881.31
2022-12-22T14:17:26.251Z,97884.13
2022-12-22T14:19:55.599Z,97888.88
2022-12-22T14:22:26.047Z,97879.75
2022-12-22T14:24:56.543Z,97874.78
2022-12-22T14:27:23.331Z,97881.81
2022-12-22T14:29:50.030Z,97892.66
2022-12-22T14:32:38.526Z,97898.66
2022-12-22T14:35:21.570Z,97894.38
2022-12-22T14:37:49.906Z,97891.44
2022-12-22T14:40:37.681Z,97899.31
2022-12-22T14:43:07.151Z,97897.91
2022-12-22T14:45:34.342Z,97901.84
2022-12-22T14:48:01.244Z,97896.75
2022-12-22T14:50:28.391Z,97896.97
2022-12-22T14:52:57.702Z,97897.75
2022-12-22T14:55:49.383Z,97906.78
2022-12-22T14:58:23.081Z,97908.47
2022-12-22T15:01:14.648Z,97908.19
2022-12-22T15:03:42.358Z,97899.56
2022-12-22T15:06:27.660Z,97909.84
2022-12-22T15:09:09.144Z,97907.97
2022-12-22T15:11:38.500Z,97899.25
2022-12-22T15:14:05.443Z,97910.09
2022-12-22T15:16:32.376Z,97908.38
2022-12-22T15:18:59.280Z,97899.22
2022-12-22T15:21:25.960Z,97903.09
2022-12-22T15:23:52.780Z,97898.22
2022-12-22T15:26:19.468Z,97902.38
2022-12-22T15:28:46.346Z,97908.03
2022-12-22T15:31:17.344Z,97907.47
2022-12-22T15:33:45.034Z,97894.75
2022-12-22T15:36:13.684Z,97901.50
2022-12-22T15:38:42.345Z,97900.09
2022-12-22T15:41:09.268Z,97901.94
2022-12-22T15:46:23.174Z,97897.22
2022-12-22T15:48:50.162Z,97889.75
2022-12-22T15:51:25.776Z,97883.06
2022-12-22T15:53:53.538Z,97881.91
2022-12-22T15:56:22.691Z,97892.88
2022-12-22T15:58:49.998Z,97891.66
2022-12-22T16:01:17.151Z,97892.63
2022-12-22T16:03:44.269Z,97891.22
2022-12-22T16:06:16.393Z,97903.13
2022-12-22T16:08:48.916Z,97893.78
2022-12-22T16:11:16.050Z,97889.91
2022-12-22T16:13:42.928Z,97896.06
2022-12-22T16:16:09.862Z,97894.78
2022-12-22T16:18:36.885Z,97899.19
2022-12-22T16:21:12.249Z,97904.50
2022-12-22T16:23:41.450Z,97900.13
2022-12-22T16:26:08.882Z,97900.31
2022-12-22T16:28:35.772Z,97918.31
2022-12-22T16:31:02.738Z,97920.97
2022-12-22T16:33:29.618Z,97922.59
2022-12-22T16:35:56.249Z,97907.31
2022-12-22T16:38:23.106Z,97907.50
2022-12-22T16:40:52.315Z,97907.38
2022-12-22T16:43:50.387Z,97909.72
2022-12-22T16:46:19.300Z,97905.16
2022-12-22T16:48:51.365Z,97913.16
2022-12-22T16:51:24.854Z,97913.06
2022-12-22T16:53:51.843Z,97910.63
2022-12-22T16:56:24.999Z,97913.03
2022-12-22T16:58:51.831Z,97902.63
2022-12-22T17:01:25.373Z,97911.50
2022-12-22T17:03:52.569Z,97913.44
2022-12-22T17:06:19.547Z,97920.47
2022-12-22T17:08:46.889Z,97914.53
2022-12-22T17:11:24.297Z,97915.34
2022-12-22T17:13:51.963Z,97900.62
2022-12-22T17:16:23.280Z,97903.66
2022-12-22T17:18:50.263Z,97909.03
2022-12-22T17:21:19.035Z,97907.38
2022-12-22T17:23:50.215Z,97901.91
2022-12-22T17:26:20.158Z,97906.88
2022-12-22T17:28:47.906Z,97909.00
2022-12-22T17:31:17.274Z,97906.22
2022-12-22T17:33:44.253Z,97898.63
2022-12-22T17:36:18.711Z,97897.37
2022-12-22T17:38:45.987Z,97900.56
2022-12-22T17:41:17.377Z,97893.91
2022-12-22T17:43:45.393Z,97896.31
2022-12-22T17:46:20.251Z,97891.13
2022-12-22T17:48:47.743Z,97885.44
2022-12-22T17:51:25.643Z,97880.69
2022-12-22T17:53:53.166Z,97884.94
2022-12-22T17:56:22.294Z,97868.09
2022-12-22T17:58:49.906Z,97865.13
2022-12-22T18:01:21.974Z,97860.00
2022-12-22T18:03:49.139Z,97864.44
2022-12-22T18:06:18.287Z,97857.94
2022-12-22T18:08:45.655Z,97856.72
2022-12-22T18:11:12.813Z,97861.81
2022-12-22T18:13:39.708Z,97861.41
2022-12-22T18:16:07.689Z,97873.56
2022-12-22T18:18:35.017Z,97877.72
2022-12-22T18:21:05.933Z,97885.25
2022-12-22T18:23:35.057Z,97892.94
2022-12-22T18:26:01.959Z,97899.84
2022-12-22T18:28:28.832Z,97892.44
2022-12-22T18:30:55.704Z,97894.00
2022-12-22T18:33:22.572Z,97900.72
2022-12-22T18:35:49.639Z,97900.84
2022-12-22T18:38:27.966Z,97904.00
2022-12-22T18:40:55.301Z,97901.16
2022-12-22T18:43:22.372Z,97900.28
2022-12-22T18:45:49.353Z,97891.91
2022-12-22T18:48:16.496Z,97898.09
2022-12-22T18:50:43.649Z,97904.69
2022-12-22T18:53:24.874Z,97903.66
2022-12-22T18:55:51.857Z,97894.91
2022-12-22T18:58:18.753Z,97883.84
2022-12-22T19:00:45.745Z,97869.56
2022-12-22T19:03:17.793Z,97869.00
2022-12-22T19:05:45.660Z,97866.78
2022-12-22T19:08:16.738Z,97860.75
2022-12-22T19:10:55.198Z,97861.53
2022-12-22T19:13:38.890Z,97854.78
2022-12-22T19:16:06.843Z,97853.66
2022-12-22T19:18:33.766Z,97861.69
2022-12-22T19:21:00.646Z,97868.03
2022-12-22T19:23:27.518Z,97860.84
2022-12-22T19:26:08.396Z,97860.44
2022-12-22T19:28:41.470Z,97847.91
2022-12-22T19:31:10.320Z,97837.09
2022-12-22T19:33:41.678Z,97829.41
2022-12-22T19:36:15.585Z,97834.91
2022-12-22T19:38:44.013Z,97822.09
2022-12-22T19:41:23.625Z,97842.16
2022-12-22T19:43:50.509Z,97841.09
2022-12-22T19:46:17.430Z,97841.34
2022-12-22T19:48:46.453Z,97828.47
2022-12-22T19:51:17.603Z,97825.16
2022-12-22T19:53:44.828Z,97824.13
2022-12-22T19:56:20.397Z,97814.78
2022-12-22T19:58:47.315Z,97810.31
2022-12-22T20:01:14.230Z,97799.53
2022-12-22T20:03:41.231Z,97805.59
2022-12-22T20:06:09.061Z,97810.09
2022-12-22T20:08:36.310Z,97798.94
2022-12-22T20:11:03.318Z,97774.63
2022-12-22T20:13:32.182Z,97764.84
2022-12-22T20:15:59.496Z,97762.84
2022-12-22T20:18:29.288Z,97758.69
2022-12-22T20:21:01.796Z,97767.59
2022-12-22T20:23:29.989Z,97771.22
2022-12-22T20:26:06.295Z,97779.28
2022-12-22T20:28:37.212Z,97782.97
2022-12-22T20:31:05.510Z,97789.06
2022-12-22T20:33:33.066Z,97785.75
2022-12-22T20:36:01.258Z,97789.19
2022-12-22T20:38:32.287Z,97793.38
2022-12-22T20:40:59.803Z,97805.25
2022-12-22T20:43:28.330Z,97787.12
2022-12-22T20:45:57.693Z,97794.16
2022-12-22T20:48:39.424Z,97792.66
2022-12-22T20:51:10.483Z,97788.25
2022-12-22T20:53:37.347Z,97778.75
2022-12-22T20:56:04.437Z,97771.19
2022-12-22T20:58:34.403Z,97767.75
2022-12-22T21:01:02.026Z,97772.75
2022-12-22T21:03:29.017Z,97780.38
2022-12-22T21:05:56.001Z,97782.91
2022-12-22T21:08:25.428Z,97791.53
2022-12-22T21:10:54.061Z,97783.19
2022-12-22T21:13:21.133Z,97789.63
2022-12-22T21:15:50.941Z,97801.56
2022-12-22T21:18:22.737Z,97813.03
2022-12-22T21:20:50.633Z,97809.12
2022-12-22T21:23:17.792Z,97793.84
2022-12-22T21:25:47.258Z,97803.56
2022-12-22T21:28:37.454Z,97797.38
2022-12-22T21:31:04.846Z,97803.69
2022-12-22T21:33:31.744Z,97810.66
2022-12-22T21:35:59.592Z,97814.19
2022-12-22T21:38:28.083Z,97815.84
2022-12-22T21:40:55.061Z,97819.81
2022-12-22T21:43:21.956Z,97823.66
2022-12-22T21:45:49.679Z,97826.00
2022-12-22T21:48:19.927Z,97832.50
2022-12-22T21:50:50.413Z,97835.94
2022-12-22T21:53:21.985Z,97834.66
2022-12-22T21:55:49.514Z,97821.09
2022-12-22T21:58:16.738Z,97805.44
2022-12-22T22:00:48.942Z,97809.00
2022-12-22T22:03:16.697Z,97803.47
2022-12-22T22:05:43.936Z,97792.78
2022-12-22T22:08:12.454Z,97795.91
2022-12-22T22:10:41.723Z,97785.06
2022-12-22T22:13:10.199Z,97793.59
2022-12-22T22:15:37.325Z,97802.19
2022-12-22T22:18:07.219Z,97800.97
2022-12-22T22:20:35.153Z,97787.81
2022-12-22T22:23:02.140Z,97785.06
2022-12-22T22:25:29.043Z,97778.69
2022-12-22T22:27:59.568Z,97766.84
2022-12-22T22:30:27.137Z,97775.66
2022-12-22T22:32:54.999Z,97791.44
2022-12-22T22:35:22.623Z,97787.75
2022-12-22T22:37:52.718Z,97783.63
2022-12-22T22:40:21.943Z,97787.19
2022-12-22T22:42:49.205Z,97785.00
2022-12-22T22:45:23.301Z,97783.09
2022-12-22T22:47:51.321Z,97777.47
2022-12-22T22:50:19.204Z,97775.69
2022-12-22T22:52:46.445Z,97773.31
2022-12-22T22:55:14.497Z,97773.09
2022-12-22T22:57:42.671Z,97777.38
2022-12-22T23:00:12.430Z,97771.19
2022-12-22T23:02:39.429Z,97770.53
2022-12-22T23:05:07.591Z,97775.31
2022-12-22T23:07:35.830Z,97771.62
2022-12-22T23:10:03.291Z,97771.44
2022-12-22T23:12:30.125Z,97763.66
2022-12-22T23:14:56.825Z,97763.72
2022-12-22T23:17:24.127Z,97766.53
2022-12-22T23:19:50.978Z,97766.97
2022-12-22T23:22:17.641Z,97760.06
2022-12-22T23:24:44.496Z,97755.84
2022-12-22T23:27:11.597Z,97757.97
2022-12-22T23:29:38.479Z,97756.19
2022-12-22T23:32:05.859Z,97752.59
2022-12-22T23:34:33.072Z,97752.41
2022-12-22T23:36:59.898Z,97753.22
2022-12-22T23:39:26.585Z,97750.47
2022-12-22T23:41:53.421Z,97743.13
2022-12-22T23:44:20.093Z,97740.22
2022-12-22T23:46:47.004Z,97744.69
2022-12-22T23:49:14.192Z,97736.75
2022-12-22T23:51:41.110Z,97732.41
2022-12-22T23:54:08.000Z,97721.06
2022-12-22T23:56:34.849Z,97723.31
2022-12-22T23:59:01.529Z,97717.00
